createdAt,value
2023-02-11T03:25:57.639Z,8.85
2023-02-11T03:28:25.449Z,8.68
2023-02-11T03:31:19.307Z,9.25
2023-02-11T03:34:04.032Z,8.40
2023-02-11T03:36:46.265Z,8.77
2023-02-11T03:39:20.389Z,9.57
2023-02-11T03:41:49.506Z,8.77
2023-02-11T03:44:17.690Z,8.70
2023-02-11T03:46:49.299Z,8.63
2023-02-11T03:51:47.040Z,8.82
2023-02-11T03:54:18.258Z,8.65
2023-02-11T03:56:53.698Z,8.40
2023-02-11T03:59:21.606Z,8.35
2023-02-11T04:01:49.339Z,8.68
2023-02-11T04:04:17.559Z,8.20
2023-02-11T04:06:45.516Z,8.13
2023-02-11T04:09:15.167Z,8.48
2023-02-11T04:11:42.950Z,8.52
2023-02-11T04:14:10.807Z,8.88
2023-02-11T04:16:38.515Z,9.43
2023-02-11T04:19:06.364Z,8.95
2023-02-11T04:21:33.998Z,9.32
2023-02-11T04:24:01.622Z,8.90
2023-02-11T04:26:29.423Z,9.98
2023-02-11T04:28:57.003Z,10.18
2023-02-11T04:31:24.931Z,10.40
2023-02-11T04:33:52.876Z,10.57
2023-02-11T04:36:20.573Z,10.73
2023-02-11T04:38:48.308Z,10.52
2023-02-11T04:41:16.076Z,11.25
2023-02-11T04:43:43.903Z,11.18
2023-02-11T04:46:11.715Z,12.30
2023-02-11T04:48:39.371Z,11.30
2023-02-11T04:51:07.479Z,11.18
2023-02-11T04:53:35.364Z,11.30
2023-02-11T04:56:03.048Z,11.30
2023-02-11T04:58:30.782Z,11.60
2023-02-11T05:01:07.184Z,10.45
2023-02-11T05:03:35.451Z,11.20
2023-02-11T05:06:04.339Z,11.77
2023-02-11T05:08:32.376Z,11.43
2023-02-11T05:11:02.271Z,11.50
2023-02-11T05:13:30.433Z,11.90
2023-02-11T05:15:58.137Z,12.20
2023-02-11T05:18:25.886Z,11.95
2023-02-11T05:20:53.575Z,12.20
2023-02-11T05:23:21.209Z,12.55
2023-02-11T05:25:49.241Z,12.40
2023-02-11T05:28:17.101Z,13.90
2023-02-11T05:30:44.866Z,13.02
2023-02-11T05:33:12.639Z,13.32
2023-02-11T05:35:40.334Z,12.63
2023-02-11T05:38:08.160Z,12.77
2023-02-11T05:40:35.926Z,12.98
2023-02-11T05:43:03.611Z,13.85
2023-02-11T05:45:31.371Z,14.32
2023-02-11T05:47:59.176Z,14.13
2023-02-11T05:50:26.945Z,13.68
2023-02-11T05:52:54.690Z,15.15
2023-02-11T05:55:22.422Z,14.93
2023-02-11T05:57:50.219Z,14.48
2023-02-11T06:00:18.427Z,15.20
2023-02-11T06:02:46.316Z,15.38
2023-02-11T06:05:14.025Z,18.25
2023-02-11T06:07:41.801Z,20.98
2023-02-11T06:10:10.047Z,21.40
2023-02-11T06:12:38.747Z,27.05
2023-02-11T06:15:07.703Z,36.78
2023-02-11T06:17:36.732Z,30.85
2023-02-11T06:20:06.481Z,29.70
2023-02-11T06:22:35.097Z,39.33
2023-02-11T06:25:03.282Z,32.10
2023-02-11T06:27:31.589Z,30.23
2023-02-11T06:29:59.358Z,28.77
2023-02-11T06:32:42.916Z,29.40
2023-02-11T06:35:12.808Z,27.95
2023-02-11T06:37:41.351Z,27.75
2023-02-11T06:40:09.820Z,29.10
2023-02-11T06:42:39.431Z,25.98
2023-02-11T06:45:09.730Z,24.80
2023-02-11T06:47:37.920Z,23.90
2023-02-11T06:50:06.689Z,21.88
2023-02-11T06:52:34.685Z,21.02
2023-02-11T06:55:02.830Z,20.58
2023-02-11T06:57:31.334Z,21.58
2023-02-11T06:59:59.235Z,21.08
2023-02-11T07:02:27.064Z,20.48
2023-02-11T07:04:54.976Z,21.08
2023-02-11T07:07:22.636Z,20.10
2023-02-11T07:09:50.283Z,19.10
2023-02-11T07:12:18.290Z,19.73
2023-02-11T07:14:46.073Z,20.38
2023-02-11T07:17:13.975Z,20.52
2023-02-11T07:19:41.763Z,20.88
2023-02-11T07:22:09.549Z,20.42
2023-02-11T07:24:37.250Z,19.70
2023-02-11T07:27:05.021Z,21.80
2023-02-11T07:29:33.264Z,20.77
2023-02-11T07:32:01.099Z,20.75
2023-02-11T07:34:28.918Z,20.48
2023-02-11T07:36:56.640Z,19.55
2023-02-11T07:39:27.560Z,18.45
2023-02-11T07:41:56.083Z,19.13
2023-02-11T07:44:24.766Z,18.42
2023-02-11T07:46:52.585Z,18.90
2023-02-11T07:49:20.265Z,16.50
2023-02-11T07:51:49.246Z,17.35
2023-02-11T07:54:17.249Z,16.83
2023-02-11T07:56:45.385Z,16.42
2023-02-11T07:59:13.240Z,16.33
2023-02-11T08:01:40.914Z,15.85
2023-02-11T08:04:08.822Z,15.68
2023-02-11T08:06:41.557Z,16.02
2023-02-11T08:09:13.822Z,15.77
2023-02-11T08:11:41.799Z,15.35
2023-02-11T08:14:10.169Z,14.80
2023-02-11T08:16:41.773Z,16.15
2023-02-11T08:19:15.203Z,14.88
2023-02-11T08:21:43.833Z,14.80
2023-02-11T08:24:12.027Z,15.10
2023-02-11T08:26:40.079Z,15.35
2023-02-11T08:29:10.560Z,15.07
2023-02-11T08:31:40.755Z,14.68
2023-02-11T08:34:10.772Z,15.13
2023-02-11T08:36:40.620Z,14.95
2023-02-11T08:39:19.534Z,13.48
2023-02-11T08:41:53.664Z,13.88
2023-02-11T08:44:21.979Z,13.30
2023-02-11T08:46:50.531Z,13.32
2023-02-11T08:49:18.639Z,13.68
2023-02-11T08:51:46.632Z,13.38
2023-02-11T08:54:14.801Z,12.75
2023-02-11T08:56:42.674Z,12.60
2023-02-11T08:59:13.936Z,12.68
2023-02-11T09:01:41.716Z,12.48
2023-02-11T09:04:10.547Z,12.65
2023-02-11T09:06:38.244Z,11.80
2023-02-11T09:09:06.209Z,12.60
2023-02-11T09:11:36.145Z,11.57
2023-02-11T09:14:05.242Z,12.38
2023-02-11T09:16:35.920Z,11.73
2023-02-11T09:19:05.313Z,12.38
2023-02-11T09:21:33.368Z,13.20
2023-02-11T09:24:01.185Z,12.68
2023-02-11T09:26:31.119Z,12.43
2023-02-11T09:28:59.282Z,12.43
2023-02-11T09:31:29.064Z,12.60
2023-02-11T09:34:03.812Z,12.48
2023-02-11T09:36:37.856Z,11.85
2023-02-11T09:39:07.900Z,12.25
2023-02-11T09:41:56.870Z,11.57
2023-02-11T09:44:28.074Z,12.10
2023-02-11T09:47:07.557Z,11.10
2023-02-11T09:49:45.896Z,11.27
2023-02-11T09:52:28.943Z,11.02
2023-02-11T09:54:59.206Z,10.57
2023-02-11T09:57:32.281Z,9.98
2023-02-11T10:00:01.635Z,10.63
2023-02-11T10:02:46.990Z,10.35
2023-02-11T10:05:34.029Z,10.38
2023-02-11T10:08:10.180Z,10.90
2023-02-11T10:11:04.679Z,10.05
2023-02-11T10:13:42.643Z,9.57
2023-02-11T10:16:31.801Z,9.75
2023-02-11T10:19:25.974Z,10.05
2023-02-11T10:22:21.763Z,9.88
2023-02-11T10:24:58.491Z,10.63
2023-02-11T10:27:33.643Z,9.07
2023-02-11T10:30:10.548Z,9.88
2023-02-11T10:32:44.709Z,9.95
2023-02-11T10:35:22.116Z,11.25
2023-02-11T10:37:50.364Z,10.55
2023-02-11T10:40:22.510Z,10.07
2023-02-11T10:45:31.016Z,9.73
2023-02-11T10:47:59.779Z,10.40
2023-02-11T10:50:30.294Z,9.40
2023-02-11T10:53:24.596Z,9.75
2023-02-11T10:55:54.747Z,9.88
2023-02-11T10:58:31.494Z,9.05
2023-02-11T11:01:00.412Z,9.60
2023-02-11T11:03:37.053Z,9.52
2023-02-11T11:06:07.115Z,8.77
2023-02-11T11:08:48.177Z,8.93
2023-02-11T11:11:18.526Z,9.50
2023-02-11T11:14:04.559Z,9.45
2023-02-11T11:16:36.202Z,8.65
2023-02-11T11:19:07.066Z,9.02
2023-02-11T11:21:43.617Z,8.57
2023-02-11T11:24:47.636Z,8.85
2023-02-11T11:27:23.908Z,8.50
2023-02-11T11:31:53.038Z,9.27
2023-02-11T11:34:27.814Z,8.98
2023-02-11T11:36:57.213Z,8.80
2023-02-11T11:39:27.174Z,12.05
2023-02-11T11:42:01.140Z,12.13
2023-02-11T11:44:34.679Z,10.35
2023-02-11T11:47:11.801Z,10.25
2023-02-11T11:49:58.170Z,11.38
2023-02-11T11:52:42.170Z,10.73
2023-02-11T11:55:21.290Z,11.00
2023-02-11T11:57:49.653Z,10.75
2023-02-11T12:00:21.091Z,10.38
2023-02-11T12:03:17.542Z,9.77
2023-02-11T12:06:00.528Z,10.10
2023-02-11T12:08:38.688Z,9.13
2023-02-11T12:11:15.817Z,9.75
2023-02-11T12:13:54.265Z,9.45
2023-02-11T12:17:03.833Z,8.75
2023-02-11T12:19:50.561Z,9.02
2023-02-11T12:22:37.002Z,8.80
2023-02-11T12:25:04.813Z,8.80
2023-02-11T12:27:56.900Z,9.70
2023-02-11T12:30:50.546Z,9.55
2023-02-11T12:33:46.959Z,9.98
2023-02-11T12:36:35.859Z,9.50
2023-02-11T12:57:46.940Z,8.98
2023-02-11T13:00:25.956Z,9.23
2023-02-11T13:03:00.512Z,8.95
2023-02-11T13:05:41.290Z,9.07
2023-02-11T13:08:22.987Z,8.55
2023-02-11T13:10:55.158Z,9.02
2023-02-11T13:16:14.651Z,10.13
2023-02-11T13:18:52.709Z,9.85
2023-02-11T13:21:35.048Z,10.27
2023-02-11T13:27:11.069Z,9.85
2023-02-11T13:30:19.534Z,10.20
2023-02-11T13:32:56.295Z,10.63
2023-02-11T13:35:37.075Z,10.43
2023-02-11T13:38:24.326Z,10.32
2023-02-11T13:41:31.569Z,10.27
2023-02-11T13:44:09.633Z,9.38
2023-02-11T13:46:51.043Z,9.88
2023-02-11T13:49:28.133Z,9.35
2023-02-11T13:51:56.576Z,9.55
2023-02-11T13:54:46.934Z,9.35
2023-02-11T13:57:20.797Z,9.40
2023-02-11T14:00:00.131Z,9.52
2023-02-11T14:02:50.074Z,9.30
2023-02-11T14:05:46.603Z,9.02
2023-02-11T14:08:38.992Z,8.80
2023-02-11T14:11:11.120Z,8.68
2023-02-11T14:13:48.010Z,8.93
2023-02-11T14:16:37.542Z,7.82
2023-02-11T14:19:06.910Z,8.55
2023-02-11T14:21:37.017Z,8.50
2023-02-11T14:24:05.178Z,8.30
2023-02-11T14:26:52.629Z,8.02
2023-02-11T14:29:33.507Z,7.85
2023-02-11T14:32:13.682Z,8.48
2023-02-11T14:35:03.124Z,8.30
2023-02-11T14:37:50.286Z,8.52
2023-02-11T14:40:24.329Z,8.05
2023-02-11T14:42:54.149Z,8.20
2023-02-11T14:45:26.518Z,7.47
2023-02-11T14:50:29.210Z,7.63
2023-02-11T14:53:00.469Z,7.72
2023-02-11T14:55:34.475Z,7.97
2023-02-11T14:58:12.401Z,8.43
2023-02-11T15:00:58.944Z,7.63
2023-02-11T15:03:29.624Z,7.88
2023-02-11T15:06:00.667Z,8.38
2023-02-11T15:08:30.448Z,8.02
2023-02-11T15:10:59.138Z,8.88
2023-02-11T15:13:31.278Z,7.82
2023-02-11T15:16:02.590Z,7.70
2023-02-11T15:18:42.351Z,7.93
2023-02-11T15:21:10.548Z,8.15
2023-02-11T15:23:39.176Z,7.72
2023-02-11T15:26:20.001Z,8.60
2023-02-11T15:28:52.378Z,8.10
2023-02-11T15:33:52.389Z,8.07
2023-02-11T15:36:28.308Z,8.02
2023-02-11T15:39:35.460Z,7.90
2023-02-11T15:42:26.070Z,8.27
2023-02-11T15:45:16.692Z,9.05
2023-02-11T15:47:53.185Z,9.38
2023-02-11T15:50:25.334Z,10.02
2023-02-11T15:52:54.022Z,10.32
2023-02-11T15:55:22.166Z,10.85
2023-02-11T15:57:56.580Z,11.63
2023-02-11T16:00:32.825Z,12.52
2023-02-11T16:03:00.836Z,11.45
2023-02-11T16:05:35.754Z,12.65
2023-02-11T16:08:30.051Z,12.63
2023-02-11T16:11:03.430Z,13.32
2023-02-11T16:13:33.807Z,13.60
2023-02-11T16:16:04.697Z,13.02
2023-02-11T16:18:40.086Z,13.13
2023-02-11T16:21:17.449Z,13.40
2023-02-11T16:23:56.516Z,13.50
2023-02-11T16:26:24.365Z,14.32
2023-02-11T16:28:52.199Z,14.43
2023-02-11T16:31:20.249Z,14.07
2023-02-11T16:33:48.000Z,14.52
2023-02-11T16:36:19.632Z,14.95
2023-02-11T16:38:47.346Z,14.95
2023-02-11T16:41:15.059Z,14.68
2023-02-11T16:43:42.882Z,15.65
2023-02-11T16:46:15.270Z,15.55
2023-02-11T16:48:43.290Z,15.63
2023-02-11T16:51:11.848Z,15.40
2023-02-11T16:53:39.546Z,16.38
2023-02-11T16:56:09.756Z,15.30
2023-02-11T16:58:37.453Z,16.15
2023-02-11T17:01:05.258Z,15.38
2023-02-11T17:03:37.723Z,15.77
2023-02-11T17:06:15.151Z,15.98
2023-02-11T17:08:43.397Z,15.75
2023-02-11T17:11:11.159Z,16.23
2023-02-11T17:13:39.745Z,16.35
2023-02-11T17:16:14.149Z,16.73
2023-02-11T17:18:41.933Z,17.60
2023-02-11T17:21:09.960Z,17.58
2023-02-11T17:23:38.013Z,18.60
2023-02-11T17:26:06.283Z,18.27
2023-02-11T17:28:34.313Z,17.83
2023-02-11T17:31:07.306Z,17.42
2023-02-11T17:33:36.247Z,16.88
2023-02-11T17:36:08.563Z,16.42
2023-02-11T17:38:38.387Z,18.65
2023-02-11T17:41:06.834Z,17.42
2023-02-11T17:43:34.567Z,18.15
2023-02-11T17:46:06.507Z,17.63
2023-02-11T17:48:34.743Z,17.42
2023-02-11T17:51:02.527Z,17.20
2023-02-11T17:53:30.369Z,17.90
2023-02-11T17:55:58.196Z,18.33
2023-02-11T17:58:25.972Z,17.63
2023-02-11T18:00:58.628Z,17.58
2023-02-11T18:03:26.486Z,18.33
2023-02-11T18:05:54.419Z,17.35
2023-02-11T18:08:22.069Z,17.17
2023-02-11T18:10:49.786Z,17.00
2023-02-11T18:13:18.461Z,17.85
2023-02-11T18:15:46.462Z,17.40
2023-02-11T18:18:14.318Z,16.83
2023-02-11T18:20:43.366Z,17.10
2023-02-11T18:23:11.246Z,17.20
2023-02-11T18:25:42.132Z,17.63
2023-02-11T18:28:09.998Z,17.63
2023-02-11T18:30:37.782Z,17.23
2023-02-11T18:33:08.981Z,17.30
2023-02-11T18:35:41.256Z,16.83
2023-02-11T18:38:09.645Z,17.77
2023-02-11T18:40:41.232Z,16.30
2023-02-11T18:43:08.918Z,17.23
2023-02-11T18:45:36.759Z,16.35
2023-02-11T18:48:05.422Z,15.98
2023-02-11T18:50:33.051Z,15.88
2023-02-11T18:53:00.877Z,15.05
2023-02-11T18:55:28.527Z,15.82
2023-02-11T18:57:56.408Z,15.55
2023-02-11T19:00:24.644Z,15.27
2023-02-11T19:02:53.304Z,14.68
2023-02-11T19:05:21.771Z,15.50
2023-02-11T19:07:49.396Z,15.02
2023-02-11T19:10:17.299Z,13.98
2023-02-11T19:12:45.085Z,15.60
2023-02-11T19:15:12.990Z,14.63
2023-02-11T19:17:40.808Z,15.43
2023-02-11T19:20:08.998Z,16.00
2023-02-11T19:22:36.772Z,15.10
2023-02-11T19:25:04.692Z,15.13
2023-02-11T19:27:32.462Z,16.58
2023-02-11T19:30:00.156Z,16.80
2023-02-11T19:32:28.390Z,17.05
2023-02-11T19:34:56.076Z,17.10
2023-02-11T19:37:24.062Z,16.98
2023-02-11T19:39:51.721Z,17.65
2023-02-11T19:42:19.610Z,17.38
2023-02-11T19:44:47.405Z,17.50
